createdAt,value
2022-08-19T00:01:54.185Z,4.05
2022-08-19T00:04:27.311Z,3.40
2022-08-19T00:06:54.664Z,4.22
2022-08-19T00:09:23.809Z,3.97
2022-08-19T00:11:52.887Z,4.45
2022-08-19T00:14:21.528Z,4.57
2022-08-19T00:16:49.888Z,4.40
2022-08-19T00:19:17.944Z,4.65
2022-08-19T00:21:45.120Z,5.35
2022-08-19T00:24:17.872Z,4.88
2022-08-19T00:26:46.573Z,5.20
2022-08-19T00:29:17.831Z,5.30
2022-08-19T00:31:46.330Z,5.55
2022-08-19T00:34:15.220Z,5.18
2022-08-19T00:36:43.193Z,6.03
2022-08-19T00:39:11.866Z,5.10
2022-08-19T00:41:39.407Z,5.63
2022-08-19T00:44:08.123Z,5.05
2022-08-19T00:46:37.643Z,4.82
2022-08-19T00:49:10.821Z,5.70
2022-08-19T00:51:38.163Z,5.90
2022-08-19T00:54:05.336Z,5.30
2022-08-19T00:56:32.875Z,5.80
2022-08-19T00:59:00.453Z,5.78
2022-08-19T01:01:27.536Z,4.88
2022-08-19T01:03:58.367Z,5.25
2022-08-19T01:06:28.692Z,5.85
2022-08-19T01:08:56.232Z,5.43
2022-08-19T01:11:23.358Z,4.97
2022-08-19T01:13:53.074Z,5.20
2022-08-19T01:16:22.482Z,5.53
2022-08-19T01:18:50.440Z,5.97
2022-08-19T01:21:43.184Z,5.50
2022-08-19T01:24:10.499Z,5.75
2022-08-19T01:26:43.955Z,4.90
2022-08-19T01:29:13.660Z,5.13
2022-08-19T01:31:41.938Z,6.15
2022-08-19T01:34:08.960Z,5.72
2022-08-19T01:36:39.911Z,5.80
2022-08-19T01:39:11.714Z,4.90
2022-08-19T01:41:38.832Z,5.05
2022-08-19T01:44:17.459Z,4.60
2022-08-19T01:46:45.795Z,4.93
2022-08-19T01:49:12.827Z,5.68
2022-08-19T01:51:40.538Z,4.47
2022-08-19T01:54:12.473Z,4.60
2022-08-19T01:56:39.670Z,4.57
2022-08-19T01:59:16.271Z,5.28
2022-08-19T02:01:43.544Z,4.90
2022-08-19T02:04:10.829Z,4.57
2022-08-19T02:06:39.099Z,4.50
2022-08-19T02:09:07.243Z,5.07
2022-08-19T02:11:37.104Z,4.97
2022-08-19T02:14:08.258Z,5.43
2022-08-19T02:16:36.834Z,5.38
2022-08-19T02:19:06.473Z,5.45
2022-08-19T02:21:34.244Z,5.45
2022-08-19T02:24:01.564Z,5.90
2022-08-19T02:26:28.758Z,6.50
2022-08-19T02:28:56.674Z,6.78
2022-08-19T02:31:26.176Z,6.47
2022-08-19T02:33:56.617Z,6.85
2022-08-19T02:36:25.624Z,6.87
2022-08-19T02:38:54.503Z,8.55
2022-08-19T02:41:27.031Z,8.27
2022-08-19T02:44:28.591Z,8.95
2022-08-19T02:46:44.386Z,8.02
2022-08-19T02:49:11.434Z,9.05
2022-08-19T02:51:42.418Z,9.43
2022-08-19T02:54:11.993Z,9.60
2022-08-19T02:56:41.324Z,9.10
2022-08-19T02:59:10.218Z,8.85
2022-08-19T03:01:41.556Z,9.38
2022-08-19T03:04:10.665Z,9.23
2022-08-19T03:06:42.369Z,9.63
2022-08-19T03:11:36.548Z,12.23
2022-08-19T03:14:06.046Z,10.35
2022-08-19T03:16:44.156Z,10.55
2022-08-19T03:19:11.242Z,9.38
2022-08-19T03:21:38.190Z,10.25
2022-08-19T03:24:08.855Z,11.43
2022-08-19T03:26:40.456Z,10.13
2022-08-19T03:29:07.560Z,10.18
2022-08-19T03:31:44.563Z,9.45
2022-08-19T03:34:22.931Z,9.60
2022-08-19T03:36:51.940Z,9.70
2022-08-19T03:39:19.513Z,10.30
2022-08-19T03:42:32.547Z,8.98
2022-08-19T03:44:38.937Z,9.50
2022-08-19T03:47:06.472Z,8.88
2022-08-19T03:49:36.151Z,9.80
2022-08-19T03:52:08.540Z,9.55
2022-08-19T03:54:39.056Z,9.30
2022-08-19T03:57:06.476Z,8.90
2022-08-19T03:59:36.445Z,9.30
2022-08-19T04:02:10.028Z,9.02
2022-08-19T04:04:38.890Z,10.93
2022-08-19T04:07:06.313Z,10.73
2022-08-19T04:09:37.171Z,9.18
2022-08-19T04:12:06.522Z,11.97
2022-08-19T04:14:34.988Z,13.30
2022-08-19T04:17:06.438Z,10.60
2022-08-19T04:19:35.975Z,10.52
2022-08-19T04:22:04.349Z,11.13
2022-08-19T04:24:31.366Z,10.15
2022-08-19T04:27:00.056Z,12.10
2022-08-19T04:29:27.941Z,11.18
2022-08-19T04:31:56.790Z,11.45
2022-08-19T04:34:26.685Z,10.68
2022-08-19T04:36:55.266Z,10.77
2022-08-19T04:39:49.653Z,10.73
2022-08-19T04:42:37.553Z,11.73
2022-08-19T04:45:09.313Z,11.85
2022-08-19T04:47:48.038Z,11.73
2022-08-19T04:50:26.037Z,11.57
2022-08-19T04:52:55.632Z,13.18
2022-08-19T04:55:22.656Z,10.43
2022-08-19T04:57:49.879Z,11.90
2022-08-19T05:00:16.910Z,11.13
2022-08-19T05:02:43.947Z,11.82
2022-08-19T05:05:11.401Z,12.00
2022-08-19T05:07:38.394Z,11.48
2022-08-19T05:10:07.200Z,12.43
2022-08-19T05:12:34.679Z,11.18
2022-08-19T05:15:04.065Z,12.77
2022-08-19T05:17:34.871Z,10.75
2022-08-19T05:20:25.914Z,11.30
2022-08-19T05:22:53.488Z,10.65
2022-08-19T05:25:22.178Z,10.05
2022-08-19T05:27:49.748Z,9.55
2022-08-19T05:30:17.443Z,10.25
2022-08-19T05:32:44.682Z,9.55
2022-08-19T05:35:12.751Z,10.23
2022-08-19T05:37:41.413Z,9.68
2022-08-19T05:40:10.328Z,9.65
2022-08-19T05:42:38.336Z,9.82
2022-08-19T05:45:05.793Z,8.98
2022-08-19T05:47:33.243Z,10.23
2022-08-19T05:50:02.748Z,8.32
2022-08-19T05:52:33.561Z,10.23
2022-08-19T05:55:00.636Z,9.63
2022-08-19T05:57:29.784Z,10.18
2022-08-19T05:59:59.161Z,10.32
2022-08-19T06:02:32.001Z,10.32
2022-08-19T06:04:59.858Z,10.32
2022-08-19T06:07:27.147Z,11.05
2022-08-19T06:10:00.800Z,12.05
2022-08-19T06:12:35.890Z,11.38
2022-08-19T06:15:11.748Z,10.35
2022-08-19T06:17:39.127Z,10.63
2022-08-19T06:20:12.931Z,9.10
2022-08-19T06:22:45.435Z,9.00
2022-08-19T06:25:15.223Z,9.35
2022-08-19T06:28:11.341Z,10.65
2022-08-19T06:30:30.673Z,8.57
2022-08-19T06:32:58.917Z,8.75
2022-08-19T06:35:26.421Z,8.45
2022-08-19T06:37:53.636Z,10.68
2022-08-19T06:40:20.771Z,8.32
2022-08-19T06:42:54.971Z,8.95
2022-08-19T06:45:24.843Z,8.05
2022-08-19T06:48:00.963Z,9.10
2022-08-19T06:50:28.643Z,8.93
2022-08-19T06:52:55.729Z,9.65
2022-08-19T06:55:23.374Z,9.85
2022-08-19T06:57:54.533Z,9.77
2022-08-19T07:00:22.029Z,11.55
2022-08-19T07:02:55.785Z,11.73
2022-08-19T07:05:26.517Z,10.63
2022-08-19T07:07:53.913Z,9.40
2022-08-19T07:10:24.855Z,9.47
2022-08-19T07:12:53.039Z,9.82
2022-08-19T07:15:22.920Z,9.68
2022-08-19T07:17:52.623Z,9.50
2022-08-19T07:20:22.857Z,10.13
2022-08-19T07:22:56.051Z,9.90
2022-08-19T07:25:32.082Z,9.73
2022-08-19T07:28:01.370Z,9.73
2022-08-19T07:30:30.380Z,10.52
2022-08-19T07:32:58.604Z,11.05
2022-08-19T07:35:26.117Z,9.48
2022-08-19T07:37:53.949Z,10.23
2022-08-19T07:40:21.261Z,10.15
2022-08-19T07:42:48.320Z,10.13
2022-08-19T07:45:16.969Z,9.70
2022-08-19T07:47:50.463Z,11.15
2022-08-19T07:50:20.402Z,10.93
2022-08-19T07:52:48.869Z,11.05
2022-08-19T07:55:41.655Z,10.52
2022-08-19T07:58:06.702Z,10.10
2022-08-19T08:00:34.822Z,10.27
2022-08-19T08:03:01.991Z,8.75
2022-08-19T08:05:48.121Z,9.27
2022-08-19T08:08:33.994Z,8.05
2022-08-19T08:11:01.584Z,9.15
2022-08-19T08:13:29.164Z,7.82
2022-08-19T08:15:57.733Z,7.53
2022-08-19T08:18:27.467Z,8.23
2022-08-19T08:20:59.319Z,7.93
2022-08-19T08:23:26.987Z,7.55
2022-08-19T08:25:57.685Z,8.32
2022-08-19T08:28:26.290Z,7.38
2022-08-19T08:30:58.409Z,7.47
2022-08-19T08:33:32.688Z,7.25
2022-08-19T08:36:08.666Z,6.82
2022-08-19T08:38:39.839Z,7.07
2022-08-19T08:41:46.926Z,8.50
2022-08-19T08:44:37.912Z,7.18
2022-08-19T08:47:13.526Z,6.63
2022-08-19T08:49:51.330Z,6.45
2022-08-19T08:52:32.193Z,6.15
2022-08-19T08:57:49.920Z,5.70
2022-08-19T09:00:21.995Z,7.05
2022-08-19T09:02:50.703Z,6.63
2022-08-19T09:05:22.603Z,4.93
2022-08-19T09:08:13.668Z,5.63
2022-08-19T09:10:47.339Z,6.32
2022-08-19T09:13:37.495Z,5.50
2022-08-19T09:16:28.628Z,5.22
2022-08-19T09:19:06.373Z,5.18
2022-08-19T09:21:35.619Z,4.30
2022-08-19T09:24:05.447Z,5.88
2022-08-19T09:26:48.351Z,4.53
2022-08-19T09:29:22.696Z,5.03
2022-08-19T09:31:50.983Z,4.28
2022-08-19T09:34:22.060Z,4.13
2022-08-19T09:36:56.504Z,4.78
2022-08-19T09:39:23.673Z,4.35
2022-08-19T09:41:53.984Z,4.28
2022-08-19T09:44:21.868Z,4.32
2022-08-19T09:46:49.334Z,5.15
2022-08-19T09:49:18.585Z,4.80
2022-08-19T09:51:51.305Z,4.85
2022-08-19T09:54:23.776Z,4.75
2022-08-19T09:56:53.497Z,4.65
2022-08-19T09:59:20.706Z,4.15
2022-08-19T10:01:48.101Z,4.53
2022-08-19T10:04:20.617Z,4.07
2022-08-19T10:06:51.790Z,4.70
2022-08-19T10:09:33.742Z,3.83
2022-08-19T10:12:03.034Z,4.67
2022-08-19T10:14:30.903Z,4.53
2022-08-19T10:16:59.248Z,4.22
2022-08-19T10:19:27.035Z,4.65
2022-08-19T10:21:58.574Z,4.47
2022-08-19T10:24:29.093Z,3.65
2022-08-19T10:26:59.071Z,4.55
2022-08-19T10:29:33.072Z,4.43
2022-08-19T10:32:09.778Z,8.02
2022-08-19T10:34:48.672Z,4.10
2022-08-19T10:37:23.763Z,4.20
2022-08-19T10:39:51.816Z,5.10
2022-08-19T10:42:19.823Z,4.07
2022-08-19T10:44:47.771Z,4.93
2022-08-19T10:47:24.383Z,3.90
2022-08-19T10:50:13.599Z,4.93
2022-08-19T10:52:50.134Z,4.68
2022-08-19T10:55:39.213Z,4.78
2022-08-19T10:58:12.624Z,4.60
2022-08-19T11:00:39.685Z,4.93
2022-08-19T11:03:07.561Z,5.25
2022-08-19T11:05:39.804Z,5.15
2022-08-19T11:08:23.464Z,4.97
2022-08-19T11:11:01.537Z,4.03
2022-08-19T11:13:30.396Z,4.85
2022-08-19T11:16:07.348Z,4.50
2022-08-19T11:18:37.717Z,4.57
2022-08-19T11:21:12.281Z,4.10
2022-08-19T11:23:39.607Z,4.30
2022-08-19T11:26:07.205Z,4.28
2022-08-19T11:28:34.297Z,4.40
2022-08-19T11:31:01.149Z,4.70
2022-08-19T11:33:28.213Z,5.85
2022-08-19T11:35:55.317Z,8.85
2022-08-19T11:38:22.427Z,9.80
2022-08-19T11:41:00.556Z,10.68
2022-08-19T11:43:37.316Z,10.65
2022-08-19T11:46:10.868Z,11.80
2022-08-19T11:48:39.008Z,10.68
2022-08-19T11:51:14.723Z,8.10
2022-08-19T11:53:42.970Z,6.68
2022-08-19T11:56:13.217Z,7.50
2022-08-19T11:58:43.487Z,6.45
2022-08-19T12:01:17.124Z,6.07
2022-08-19T12:03:48.020Z,5.55
2022-08-19T12:06:17.799Z,5.95
2022-08-19T12:08:46.703Z,5.60
2022-08-19T12:11:14.721Z,7.30
2022-08-19T12:13:45.974Z,10.32
2022-08-19T12:16:16.374Z,6.05
2022-08-19T12:18:47.490Z,5.60
2022-08-19T12:21:18.753Z,6.10
2022-08-19T12:23:53.823Z,5.80
2022-08-19T12:26:23.038Z,6.30
2022-08-19T12:28:50.074Z,6.78
2022-08-19T12:31:18.249Z,7.82
2022-08-19T12:33:47.573Z,7.22
2022-08-19T12:36:16.521Z,7.07
2022-08-19T12:38:45.088Z,6.72
2022-08-19T12:41:14.927Z,6.15
2022-08-19T12:43:43.075Z,5.90
2022-08-19T12:46:13.589Z,5.68
2022-08-19T12:48:46.501Z,4.82
2022-08-19T12:51:17.939Z,4.40
2022-08-19T12:53:45.082Z,3.60
2022-08-19T12:56:15.293Z,3.53
2022-08-19T12:58:48.642Z,4.05
2022-08-19T13:01:22.973Z,3.97
2022-08-19T13:03:53.428Z,4.53
2022-08-19T13:06:20.632Z,4.15
2022-08-19T13:08:47.892Z,3.80
2022-08-19T13:11:18.380Z,3.95
2022-08-19T13:13:51.379Z,4.40
2022-08-19T13:16:19.449Z,3.70
2022-08-19T13:18:48.467Z,3.72
2022-08-19T13:21:15.953Z,4.15
2022-08-19T13:23:46.034Z,4.22
2022-08-19T13:26:14.489Z,3.85
2022-08-19T13:29:00.421Z,4.20
2022-08-19T13:31:48.502Z,4.63
2022-08-19T13:34:16.608Z,3.90
2022-08-19T13:36:44.990Z,3.92
2022-08-19T13:39:12.072Z,4.78
2022-08-19T13:41:48.866Z,4.50
2022-08-19T13:44:19.245Z,4.15
2022-08-19T13:46:48.156Z,4.22
2022-08-19T13:49:16.206Z,4.15
2022-08-19T13:51:44.585Z,4.72
2022-08-19T13:54:12.763Z,5.25
2022-08-19T13:56:46.228Z,4.50
2022-08-19T13:59:13.758Z,5.00
2022-08-19T14:01:40.881Z,4.90
2022-08-19T14:04:08.930Z,4.75
2022-08-19T14:06:36.397Z,4.07
2022-08-19T14:09:03.710Z,4.88
2022-08-19T14:11:31.131Z,4.70
2022-08-19T14:13:58.423Z,4.65
2022-08-19T14:16:25.635Z,4.80
2022-08-19T14:18:53.884Z,5.30
2022-08-19T14:21:24.770Z,5.72
2022-08-19T14:23:52.293Z,5.35
2022-08-19T14:26:21.734Z,5.05
2022-08-19T14:28:51.451Z,5.15
2022-08-19T14:31:26.799Z,5.45
2022-08-19T14:33:57.294Z,5.13
2022-08-19T14:36:24.284Z,4.85
2022-08-19T14:38:54.482Z,6.38
2022-08-19T14:41:23.350Z,5.97
2022-08-19T14:43:53.265Z,4.93
2022-08-19T14:46:29.757Z,4.22
2022-08-19T14:49:00.070Z,4.30
2022-08-19T14:51:27.744Z,3.72
2022-08-19T14:53:55.128Z,3.22
2022-08-19T14:56:26.361Z,3.38
2022-08-19T14:59:00.246Z,2.75
2022-08-19T15:01:28.084Z,2.80
2022-08-19T15:03:55.670Z,2.45
2022-08-19T15:06:27.361Z,3.10
2022-08-19T15:08:55.422Z,2.50
2022-08-19T15:11:28.702Z,2.55
2022-08-19T15:13:59.315Z,3.58
2022-08-19T15:16:28.137Z,2.70
2022-08-19T15:18:57.822Z,3.60
2022-08-19T15:21:27.381Z,3.38
2022-08-19T15:23:57.159Z,3.20
2022-08-19T15:26:25.714Z,3.15
2022-08-19T15:28:53.164Z,3.20
2022-08-19T15:31:28.475Z,3.35
2022-08-19T15:33:58.813Z,3.17
2022-08-19T15:36:27.597Z,4.07
2022-08-19T15:38:56.583Z,3.97
2022-08-19T15:41:27.969Z,3.80
2022-08-19T15:43:59.907Z,4.20
2022-08-19T15:46:31.022Z,3.92
2022-08-19T15:49:00.154Z,4.28
2022-08-19T15:51:30.298Z,3.92
2022-08-19T15:53:59.012Z,4.00
2022-08-19T15:56:27.577Z,4.22
2022-08-19T15:59:13.346Z,4.43
2022-08-19T16:01:59.413Z,4.40
2022-08-19T16:04:45.082Z,4.45
2022-08-19T16:07:12.824Z,4.00
2022-08-19T16:09:40.040Z,4.10
2022-08-19T16:12:08.612Z,3.60
2022-08-19T16:14:38.108Z,3.95
2022-08-19T16:17:05.555Z,3.75
2022-08-19T16:19:33.394Z,3.67
2022-08-19T16:22:00.461Z,3.20
2022-08-19T16:24:28.631Z,3.60
2022-08-19T16:27:00.917Z,3.50
2022-08-19T16:29:34.414Z,3.90
2022-08-19T16:32:12.337Z,3.13
2022-08-19T16:34:41.695Z,2.72
2022-08-19T16:37:10.260Z,3.38
2022-08-19T16:39:37.780Z,3.10
2022-08-19T16:42:07.853Z,3.05
2022-08-19T16:44:36.768Z,2.55
2022-08-19T16:47:12.684Z,2.00
2022-08-19T16:49:54.329Z,2.08
2022-08-19T16:52:27.072Z,1.50
2022-08-19T16:54:54.900Z,0.95
2022-08-19T16:57:23.848Z,1.00
2022-08-19T16:59:52.379Z,0.60
2022-08-19T17:02:22.651Z,0.95
2022-08-19T17:04:58.402Z,1.05
2022-08-19T17:07:33.089Z,1.08
2022-08-19T17:10:02.717Z,1.10
2022-08-19T17:12:32.125Z,1.15
2022-08-19T17:15:01.626Z,1.02
2022-08-19T17:17:31.197Z,1.10
2022-08-19T17:20:00.298Z,1.27
2022-08-19T17:22:27.881Z,1.30
2022-08-19T17:24:56.253Z,1.00
2022-08-19T17:27:26.487Z,1.00
2022-08-19T17:29:53.623Z,1.13
2022-08-19T17:32:24.971Z,0.98
2022-08-19T17:34:56.786Z,0.85
2022-08-19T17:39:53.630Z,1.20
2022-08-19T17:42:20.980Z,1.02
2022-08-19T17:44:50.416Z,1.27
2022-08-19T17:47:19.434Z,1.40
2022-08-19T17:52:18.828Z,1.00
2022-08-19T17:54:46.832Z,1.20
2022-08-19T17:57:14.227Z,1.08
2022-08-19T17:59:41.198Z,1.80
2022-08-19T18:02:11.154Z,1.40
2022-08-19T18:04:39.612Z,1.15
2022-08-19T18:07:16.602Z,1.15
2022-08-19T18:09:49.450Z,1.52
2022-08-19T18:12:18.055Z,1.30
2022-08-19T18:14:45.085Z,1.60
2022-08-19T18:17:17.389Z,1.70
2022-08-19T18:19:49.966Z,1.27
2022-08-19T18:22:27.894Z,1.42
2022-08-19T18:24:59.211Z,1.40
2022-08-19T18:27:27.715Z,1.13
2022-08-19T18:29:59.922Z,1.30
2022-08-19T18:32:38.979Z,1.38
2022-08-19T18:35:16.587Z,1.08
2022-08-19T18:37:45.263Z,1.23
2022-08-19T18:40:38.212Z,1.80
2022-08-19T18:43:12.436Z,2.50
2022-08-19T18:46:01.811Z,1.80
2022-08-19T18:48:47.964Z,1.58
2022-08-19T18:51:16.736Z,1.48
2022-08-19T18:53:46.380Z,1.63
2022-08-19T18:56:15.938Z,1.25
2022-08-19T18:58:43.651Z,1.40
2022-08-19T19:01:17.898Z,1.60
2022-08-19T19:03:53.693Z,1.77
2022-08-19T19:06:30.963Z,1.40
2022-08-19T19:08:59.401Z,2.33
2022-08-19T19:11:33.924Z,1.55
2022-08-19T19:14:02.726Z,1.40
2022-08-19T19:16:31.111Z,1.77
2022-08-19T19:18:59.188Z,1.63
2022-08-19T19:21:34.674Z,1.27
2022-08-19T19:24:04.946Z,3.47
2022-08-19T19:26:33.131Z,2.33
2022-08-19T19:29:00.231Z,1.92
2022-08-19T19:31:27.446Z,1.60
2022-08-19T19:33:57.012Z,1.67
2022-08-19T19:36:25.951Z,1.63
2022-08-19T19:39:01.420Z,1.75
2022-08-19T19:41:30.484Z,1.90
2022-08-19T19:44:30.133Z,1.83
2022-08-19T19:46:50.261Z,1.73
2022-08-19T19:49:19.637Z,1.70
2022-08-19T19:51:46.722Z,1.25
2022-08-19T19:54:15.746Z,1.27
2022-08-19T19:56:45.075Z,1.67
2022-08-19T19:59:12.506Z,1.15
2022-08-19T20:01:47.396Z,0.98
2022-08-19T20:04:15.787Z,1.10
2022-08-19T20:06:47.042Z,1.13
2022-08-19T20:09:19.703Z,0.90
2022-08-19T20:11:55.507Z,0.65
2022-08-19T20:14:29.326Z,0.60
2022-08-19T20:16:59.349Z,0.80
2022-08-19T20:19:34.347Z,0.60
2022-08-19T20:22:01.718Z,0.70
2022-08-19T20:24:38.686Z,0.63
2022-08-19T20:27:07.295Z,1.20
2022-08-19T20:29:39.448Z,2.10
2022-08-19T20:32:12.556Z,1.35
2022-08-19T20:34:41.169Z,1.10
2022-08-19T20:37:11.322Z,0.90
2022-08-19T20:39:38.664Z,0.90
2022-08-19T20:42:06.012Z,0.82
2022-08-19T20:44:33.112Z,0.98
2022-08-19T20:47:03.843Z,0.93
2022-08-19T20:49:32.694Z,1.10
2022-08-19T20:52:00.377Z,0.98
2022-08-19T20:54:28.060Z,0.80
2022-08-19T20:56:55.398Z,0.90
2022-08-19T20:59:27.158Z,0.80
2022-08-19T21:01:54.525Z,0.80
2022-08-19T21:04:24.853Z,1.02
2022-08-19T21:06:52.095Z,1.13
2022-08-19T21:09:19.475Z,0.68
2022-08-19T21:11:47.212Z,1.05
2022-08-19T21:14:14.442Z,0.80
2022-08-19T21:16:41.694Z,0.98
2022-08-19T21:19:10.783Z,0.90
2022-08-19T21:21:43.379Z,0.73
2022-08-19T21:24:45.971Z,1.00
2022-08-19T21:27:13.345Z,1.52
2022-08-19T21:29:42.129Z,1.20
2022-08-19T21:32:14.192Z,0.90
2022-08-19T21:34:45.446Z,0.77
2022-08-19T21:37:24.793Z,1.10
2022-08-19T21:39:54.545Z,1.15
2022-08-19T21:42:23.446Z,1.00
2022-08-19T21:44:51.158Z,1.00
2022-08-19T21:47:18.453Z,1.10
2022-08-19T21:49:45.485Z,1.00
2022-08-19T21:52:24.796Z,1.20
2022-08-19T21:54:52.960Z,1.17
2022-08-19T21:57:32.188Z,1.30
2022-08-19T21:59:59.237Z,0.90
2022-08-19T22:02:27.495Z,1.20
2022-08-19T22:04:58.258Z,1.08
2022-08-19T22:07:25.537Z,1.20
2022-08-19T22:09:53.165Z,1.17
2022-08-19T22:12:25.867Z,1.35
2022-08-19T22:14:54.094Z,1.48
2022-08-19T22:17:28.747Z,1.23
2022-08-19T22:19:58.268Z,2.10
2022-08-19T22:22:29.519Z,1.38
2022-08-19T22:25:12.489Z,1.80
2022-08-19T22:27:40.048Z,1.70
2022-08-19T22:30:14.864Z,1.90
2022-08-19T22:32:56.021Z,2.30
2022-08-19T22:35:25.601Z,2.15
2022-08-19T22:37:52.761Z,2.30
2022-08-19T22:40:20.351Z,1.98
2022-08-19T22:42:48.890Z,2.20
2022-08-19T22:45:18.298Z,2.05
2022-08-19T22:47:45.543Z,2.22
2022-08-19T22:50:13.851Z,1.73
2022-08-19T22:52:51.625Z,1.90
2022-08-19T22:55:27.897Z,2.08
2022-08-19T22:57:55.299Z,1.92
2022-08-19T23:00:23.966Z,2.65
2022-08-19T23:02:51.686Z,2.28
2022-08-19T23:05:25.015Z,2.00
2022-08-19T23:07:53.073Z,2.40
2022-08-19T23:10:27.209Z,1.90
2022-08-19T23:12:59.278Z,1.70
2022-08-19T23:15:31.858Z,1.98
2022-08-19T23:18:01.949Z,2.30
2022-08-19T23:20:32.888Z,2.33
2022-08-19T23:23:04.282Z,2.30
2022-08-19T23:25:34.191Z,2.35
2022-08-19T23:28:20.949Z,2.20
2022-08-19T23:30:49.284Z,2.45
2022-08-19T23:33:46.702Z,2.00
2022-08-19T23:36:17.683Z,1.85
2022-08-19T23:38:47.328Z,1.98
2022-08-19T23:41:16.127Z,1.90
2022-08-19T23:43:44.577Z,1.90
2022-08-19T23:46:27.732Z,2.15
2022-08-19T23:48:55.909Z,1.80
2022-08-19T23:51:23.310Z,1.95
2022-08-19T23:53:50.306Z,1.65
2022-08-19T23:56:17.647Z,1.90
2022-08-19T23:58:45.575Z,1.73
